createdAt,value
2022-12-04T00:01:27.941Z,100.00
2022-12-04T00:04:01.363Z,100.00
2022-12-04T00:06:29.449Z,100.00
2022-12-04T00:08:57.922Z,100.00
2022-12-04T00:11:31.112Z,100.00
2022-12-04T00:14:04.588Z,100.00
2022-12-04T00:16:33.402Z,100.00
2022-12-04T00:19:00.141Z,100.00
2022-12-04T00:21:28.975Z,100.00
2022-12-04T00:23:55.704Z,100.00
2022-12-04T00:26:28.445Z,100.00
2022-12-04T00:28:56.360Z,100.00
2022-12-04T00:31:28.352Z,100.00
2022-12-04T00:33:55.372Z,100.00
2022-12-04T00:36:23.620Z,100.00
2022-12-04T00:38:50.957Z,100.00
2022-12-04T00:41:20.179Z,100.00
2022-12-04T00:43:47.244Z,100.00
2022-12-04T00:46:15.321Z,100.00
2022-12-04T00:48:44.583Z,100.00
2022-12-04T00:51:15.004Z,100.00
2022-12-04T00:53:42.879Z,100.00
2022-12-04T00:56:21.969Z,100.00
2022-12-04T00:58:48.540Z,100.00
2022-12-04T01:01:18.527Z,100.00
2022-12-04T01:03:45.861Z,100.00
2022-12-04T01:06:27.368Z,100.00
2022-12-04T01:08:55.331Z,100.00
2022-12-04T01:11:23.429Z,100.00
2022-12-04T01:13:50.856Z,100.00
2022-12-04T01:16:27.255Z,100.00
2022-12-04T01:18:55.026Z,100.00
2022-12-04T01:21:22.744Z,100.00
2022-12-04T01:23:50.696Z,100.00
2022-12-04T01:26:17.396Z,100.00
2022-12-04T01:28:46.591Z,100.00
2022-12-04T01:31:15.690Z,100.00
2022-12-04T01:33:43.164Z,100.00
2022-12-04T01:36:14.480Z,100.00
2022-12-04T01:38:41.695Z,100.00
2022-12-04T01:41:10.298Z,100.00
2022-12-04T01:43:38.523Z,100.00
2022-12-04T01:46:06.161Z,100.00
2022-12-04T01:48:34.319Z,100.00
2022-12-04T01:51:07.998Z,100.00
2022-12-04T01:53:39.304Z,100.00
2022-12-04T01:58:50.591Z,100.00
2022-12-04T02:01:18.822Z,100.00
2022-12-04T02:03:45.640Z,100.00
2022-12-04T02:06:12.447Z,100.00
2022-12-04T02:08:40.718Z,100.00
2022-12-04T02:11:42.023Z,100.00
2022-12-04T02:14:22.434Z,100.00
2022-12-04T02:17:07.123Z,100.00
2022-12-04T02:20:02.461Z,100.00
2022-12-04T02:23:15.158Z,100.00
2022-12-04T02:25:54.343Z,100.00
2022-12-04T02:28:39.109Z,100.00
2022-12-04T02:31:16.525Z,100.00
2022-12-04T02:36:27.827Z,100.00
2022-12-04T02:39:18.363Z,100.00
2022-12-04T02:42:12.220Z,100.00
2022-12-04T02:44:48.834Z,100.00
2022-12-04T02:47:20.241Z,100.00
2022-12-04T02:49:52.995Z,100.00
2022-12-04T02:52:26.064Z,100.00
2022-12-04T02:55:01.107Z,100.00
2022-12-04T02:57:36.718Z,100.00
2022-12-04T03:00:09.478Z,100.00
2022-12-04T03:02:45.718Z,100.00
2022-12-04T03:08:04.569Z,100.00
2022-12-04T03:10:38.593Z,100.00
2022-12-04T03:13:13.784Z,100.00
2022-12-04T03:16:05.496Z,100.00
2022-12-04T03:19:01.082Z,100.00
2022-12-04T03:24:37.985Z,100.00
2022-12-04T03:27:27.599Z,100.00
2022-12-04T03:30:04.936Z,100.00
2022-12-04T03:32:38.509Z,100.00
2022-12-04T03:35:27.506Z,100.00
2022-12-04T03:38:17.495Z,100.00
2022-12-04T03:41:13.761Z,100.00
2022-12-04T03:44:00.389Z,100.00
2022-12-04T03:46:33.474Z,100.00
2022-12-04T03:49:04.792Z,100.00
2022-12-04T03:51:39.884Z,100.00
2022-12-04T03:54:21.307Z,100.00
2022-12-04T03:56:55.220Z,100.00
2022-12-04T03:59:27.117Z,100.00
2022-12-04T04:01:59.876Z,100.00
2022-12-04T04:04:35.266Z,100.00
2022-12-04T04:07:11.939Z,100.00
2022-12-04T04:09:44.330Z,100.00
2022-12-04T04:12:16.764Z,100.00
2022-12-04T04:15:10.655Z,100.00
2022-12-04T04:18:03.794Z,100.00
2022-12-04T04:21:12.074Z,100.00
2022-12-04T04:24:04.687Z,100.00
2022-12-04T04:26:35.717Z,100.00
2022-12-04T04:29:02.740Z,100.00
2022-12-04T04:31:32.449Z,100.00
2022-12-04T04:34:16.979Z,100.00
2022-12-04T04:36:54.279Z,100.00
2022-12-04T04:39:27.664Z,100.00
2022-12-04T04:42:21.513Z,100.00
2022-12-04T04:44:58.347Z,100.00
2022-12-04T04:47:39.798Z,100.00
2022-12-04T04:50:10.596Z,100.00
2022-12-04T04:52:40.749Z,100.00
2022-12-04T04:55:08.537Z,100.00
2022-12-04T04:57:36.583Z,100.00
2022-12-04T05:00:12.487Z,100.00
2022-12-04T05:02:39.250Z,100.00
2022-12-04T05:05:06.494Z,100.00
2022-12-04T05:07:33.489Z,100.00
2022-12-04T05:10:01.527Z,100.00
2022-12-04T05:12:28.367Z,100.00
2022-12-04T05:14:55.152Z,100.00
2022-12-04T05:17:23.166Z,100.00
2022-12-04T05:19:57.219Z,100.00
2022-12-04T05:22:26.405Z,100.00
2022-12-04T05:24:53.663Z,100.00
2022-12-04T05:27:21.540Z,100.00
2022-12-04T05:29:48.832Z,100.00
2022-12-04T05:32:15.472Z,100.00
2022-12-04T05:34:43.202Z,100.00
2022-12-04T05:37:09.879Z,100.00
2022-12-04T05:39:36.607Z,100.00
2022-12-04T05:42:04.478Z,100.00
2022-12-04T05:44:31.178Z,100.00
2022-12-04T05:46:58.201Z,100.00
2022-12-04T05:49:25.151Z,100.00
2022-12-04T05:51:52.098Z,100.00
2022-12-04T05:54:19.362Z,100.00
2022-12-04T05:56:46.385Z,100.00
2022-12-04T05:59:13.957Z,100.00
2022-12-04T06:01:41.360Z,100.00
2022-12-04T06:04:08.002Z,100.00
2022-12-04T06:06:36.991Z,100.00
2022-12-04T06:09:03.862Z,100.00
2022-12-04T06:11:33.092Z,100.00
2022-12-04T06:14:01.414Z,100.00
2022-12-04T06:16:31.149Z,100.00
2022-12-04T06:19:00.302Z,100.00
2022-12-04T06:21:29.083Z,100.00
2022-12-04T06:23:57.251Z,100.00
2022-12-04T06:26:24.750Z,100.00
2022-12-04T06:28:56.956Z,100.00
2022-12-04T06:31:28.571Z,100.00
2022-12-04T06:33:56.785Z,100.00
2022-12-04T06:36:24.733Z,100.00
2022-12-04T06:38:56.553Z,100.00
2022-12-04T06:41:25.246Z,100.00
2022-12-04T06:43:52.580Z,100.00
2022-12-04T06:46:24.992Z,100.00
2022-12-04T06:48:52.482Z,100.00
2022-12-04T06:51:22.188Z,100.00
2022-12-04T06:53:49.480Z,100.00
2022-12-04T06:56:19.397Z,100.00
2022-12-04T06:58:50.981Z,100.00
2022-12-04T07:01:27.454Z,100.00
2022-12-04T07:03:55.791Z,100.00
2022-12-04T07:06:29.121Z,100.00
2022-12-04T07:09:00.427Z,100.00
2022-12-04T07:11:27.706Z,100.00
2022-12-04T07:13:55.253Z,100.00
2022-12-04T07:16:23.556Z,100.00
2022-12-04T07:18:53.457Z,100.00
2022-12-04T07:21:24.050Z,100.00
2022-12-04T07:23:52.781Z,100.00
2022-12-04T07:26:22.995Z,100.00
2022-12-04T07:28:49.977Z,100.00
2022-12-04T07:31:19.263Z,100.00
2022-12-04T07:33:48.686Z,100.00
2022-12-04T07:36:18.192Z,100.00
2022-12-04T07:38:45.023Z,100.00
2022-12-04T07:41:13.780Z,100.00
2022-12-04T07:43:41.124Z,100.00
2022-12-04T07:46:19.782Z,100.00
2022-12-04T07:48:46.629Z,100.00
2022-12-04T07:51:16.068Z,100.00
2022-12-04T07:53:44.032Z,100.00
2022-12-04T07:56:12.767Z,100.00
2022-12-04T07:58:40.106Z,100.00
2022-12-04T08:01:07.032Z,100.00
2022-12-04T08:03:33.908Z,100.00
2022-12-04T08:06:02.625Z,100.00
2022-12-04T08:08:29.899Z,100.00
2022-12-04T08:10:56.825Z,100.00
2022-12-04T08:13:23.532Z,100.00
2022-12-04T08:15:50.681Z,100.00
2022-12-04T08:18:19.705Z,100.00
2022-12-04T08:20:46.357Z,100.00
2022-12-04T08:23:13.551Z,100.00
2022-12-04T08:25:41.386Z,100.00
2022-12-04T08:28:12.091Z,100.00
2022-12-04T08:30:38.918Z,100.00
2022-12-04T08:33:05.667Z,100.00
2022-12-04T08:35:32.617Z,100.00
2022-12-04T08:37:59.249Z,100.00
2022-12-04T08:40:26.079Z,100.00
2022-12-04T08:42:52.872Z,100.00
2022-12-04T08:45:20.190Z,100.00
2022-12-04T08:47:52.212Z,100.00
2022-12-04T08:50:19.315Z,100.00
2022-12-04T08:52:46.070Z,100.00
2022-12-04T08:55:13.138Z,100.00
2022-12-04T08:57:41.124Z,100.00
2022-12-04T09:00:08.286Z,100.00
2022-12-04T09:02:37.661Z,100.00
2022-12-04T09:05:04.562Z,100.00
2022-12-04T09:07:31.295Z,100.00
2022-12-04T09:09:58.630Z,100.00
2022-12-04T09:12:26.680Z,100.00
2022-12-04T09:14:54.693Z,100.00
2022-12-04T09:17:22.641Z,100.00
2022-12-04T09:19:51.758Z,100.00
2022-12-04T09:22:19.649Z,100.00
2022-12-04T09:24:46.566Z,100.00
2022-12-04T09:27:15.127Z,100.00
2022-12-04T09:29:42.422Z,100.00
2022-12-04T09:32:09.081Z,100.00
2022-12-04T09:34:36.883Z,100.00
2022-12-04T09:37:03.686Z,100.00
2022-12-04T09:39:30.453Z,100.00
2022-12-04T09:42:17.306Z,100.00
2022-12-04T09:44:49.875Z,100.00
2022-12-04T09:47:24.337Z,100.00
2022-12-04T09:49:58.678Z,100.00
2022-12-04T09:52:38.627Z,100.00
2022-12-04T09:55:12.398Z,100.00
2022-12-04T09:57:44.270Z,100.00
2022-12-04T10:00:14.682Z,100.00
2022-12-04T10:02:45.515Z,100.00
2022-12-04T10:05:21.665Z,100.00
2022-12-04T10:07:57.447Z,99.96
2022-12-04T10:10:39.996Z,100.00
2022-12-04T10:13:54.392Z,100.00
2022-12-04T10:16:33.047Z,100.00
2022-12-04T10:19:07.452Z,99.34
2022-12-04T10:21:51.449Z,99.94
2022-12-04T10:25:03.360Z,98.18
2022-12-04T10:27:53.968Z,97.61
2022-12-04T10:30:26.756Z,97.83
2022-12-04T10:33:00.965Z,95.25
2022-12-04T10:35:30.506Z,94.17
2022-12-04T10:38:12.720Z,94.98
2022-12-04T10:40:51.213Z,93.60
2022-12-04T10:43:36.487Z,94.90
2022-12-04T10:46:03.178Z,94.80
2022-12-04T10:48:37.516Z,94.34
2022-12-04T10:51:04.738Z,94.40
2022-12-04T10:53:35.413Z,98.48
2022-12-04T10:56:18.005Z,95.71
2022-12-04T10:58:56.103Z,90.39
2022-12-04T11:01:23.753Z,87.64
2022-12-04T11:03:59.254Z,88.88
2022-12-04T11:06:27.371Z,91.68
2022-12-04T11:08:55.149Z,92.45
2022-12-04T11:11:31.380Z,93.32
2022-12-04T11:14:17.336Z,91.87
2022-12-04T11:16:50.136Z,92.04
2022-12-04T11:19:41.465Z,94.00
2022-12-04T11:22:15.200Z,89.96
2022-12-04T11:24:43.226Z,88.94
2022-12-04T11:27:25.320Z,86.41
2022-12-04T11:29:52.258Z,87.79
2022-12-04T11:32:26.577Z,90.45
2022-12-04T11:35:00.417Z,93.44
2022-12-04T11:37:32.249Z,98.47
2022-12-04T11:40:00.422Z,99.84
2022-12-04T11:42:29.509Z,98.67
2022-12-04T11:44:59.114Z,100.00
2022-12-04T11:47:31.707Z,100.00
2022-12-04T11:50:13.215Z,100.00
2022-12-04T11:52:54.594Z,100.00
2022-12-04T11:56:15.914Z,100.00
2022-12-04T11:59:01.684Z,100.00
2022-12-04T12:01:37.447Z,100.00
2022-12-04T12:04:32.106Z,100.00
2022-12-04T12:07:19.418Z,100.00
2022-12-04T12:10:21.498Z,100.00
2022-12-04T12:13:10.102Z,100.00
2022-12-04T12:15:36.743Z,100.00
2022-12-04T12:18:20.929Z,100.00
2022-12-04T12:21:13.688Z,100.00
2022-12-04T12:24:03.401Z,100.00
2022-12-04T12:26:37.399Z,100.00
2022-12-04T12:29:33.375Z,100.00
2022-12-04T12:32:26.101Z,100.00
2022-12-04T12:34:53.004Z,100.00
2022-12-04T12:37:52.373Z,100.00
2022-12-04T12:40:39.895Z,100.00
2022-12-04T12:43:13.888Z,100.00
2022-12-04T12:45:51.694Z,100.00
2022-12-04T12:48:30.543Z,100.00
2022-12-04T12:51:29.178Z,100.00
2022-12-04T12:54:04.887Z,100.00
2022-12-04T12:56:43.371Z,100.00
2022-12-04T12:59:19.517Z,100.00
2022-12-04T13:02:04.680Z,100.00
2022-12-04T13:04:38.817Z,100.00
2022-12-04T13:07:25.084Z,100.00
2022-12-04T13:10:07.772Z,100.00
2022-12-04T13:12:47.659Z,100.00
2022-12-04T13:15:23.441Z,100.00
2022-12-04T13:17:53.646Z,100.00
2022-12-04T13:20:25.620Z,100.00
2022-12-04T13:25:47.934Z,100.00
2022-12-04T13:29:08.577Z,100.00
2022-12-04T13:32:01.952Z,100.00
2022-12-04T13:34:42.773Z,100.00
2022-12-04T13:37:49.017Z,100.00
2022-12-04T13:40:32.634Z,100.00
2022-12-04T13:43:43.136Z,100.00
2022-12-04T13:46:28.603Z,100.00
2022-12-04T13:48:55.775Z,100.00
2022-12-04T13:51:40.567Z,100.00
2022-12-04T13:54:26.998Z,100.00
2022-12-04T13:56:58.728Z,100.00
2022-12-04T13:59:28.541Z,100.00
2022-12-04T14:02:03.506Z,100.00
2022-12-04T14:04:44.466Z,100.00
2022-12-04T14:07:34.794Z,100.00
2022-12-04T14:10:07.630Z,100.00
2022-12-04T14:12:39.268Z,100.00
2022-12-04T14:15:29.075Z,100.00
2022-12-04T14:18:04.653Z,100.00
2022-12-04T14:20:42.486Z,100.00
2022-12-04T14:23:26.711Z,100.00
2022-12-04T14:26:02.985Z,100.00
2022-12-04T14:28:36.031Z,100.00
2022-12-04T14:31:19.615Z,100.00
2022-12-04T14:34:11.485Z,100.00
2022-12-04T14:36:44.018Z,100.00
2022-12-04T14:42:25.088Z,100.00
2022-12-04T14:47:47.123Z,100.00
2022-12-04T14:50:30.127Z,100.00
2022-12-04T14:53:19.168Z,100.00
2022-12-04T14:55:52.278Z,100.00
2022-12-04T14:58:29.976Z,100.00
2022-12-04T15:00:59.298Z,100.00
2022-12-04T15:03:29.844Z,100.00
2022-12-04T15:09:22.561Z,100.00
2022-12-04T15:12:31.139Z,100.00
2022-12-04T15:15:02.276Z,100.00
2022-12-04T15:17:28.902Z,100.00
2022-12-04T15:19:55.627Z,100.00
2022-12-04T15:22:26.163Z,100.00
2022-12-04T15:24:55.247Z,100.00
2022-12-04T15:27:32.066Z,100.00
2022-12-04T15:30:02.395Z,100.00
2022-12-04T15:32:32.902Z,100.00
2022-12-04T15:35:05.309Z,100.00
2022-12-04T15:37:36.628Z,100.00
2022-12-04T15:40:08.601Z,100.00
2022-12-04T15:42:35.231Z,100.00
2022-12-04T15:45:03.614Z,100.00
2022-12-04T15:47:33.136Z,100.00
2022-12-04T15:50:15.216Z,100.00
2022-12-04T15:52:59.770Z,100.00
2022-12-04T15:55:29.209Z,100.00
2022-12-04T15:58:02.256Z,100.00
2022-12-04T16:00:32.625Z,100.00
2022-12-04T16:03:00.381Z,100.00
2022-12-04T16:05:36.176Z,100.00
2022-12-04T16:08:20.990Z,100.00
2022-12-04T16:11:01.041Z,100.00
2022-12-04T16:13:31.755Z,100.00
2022-12-04T16:16:00.262Z,100.00
2022-12-04T16:18:28.628Z,100.00
2022-12-04T16:20:55.913Z,100.00
2022-12-04T16:23:25.004Z,100.00
2022-12-04T16:25:53.734Z,100.00
2022-12-04T16:28:20.993Z,100.00
2022-12-04T16:30:47.970Z,100.00
2022-12-04T16:33:15.891Z,100.00
2022-12-04T16:35:44.195Z,100.00
2022-12-04T16:38:17.606Z,100.00
2022-12-04T16:40:47.976Z,100.00
2022-12-04T16:43:16.394Z,100.00
2022-12-04T16:45:53.311Z,100.00
2022-12-04T16:48:20.161Z,100.00
2022-12-04T16:50:47.185Z,100.00
2022-12-04T16:53:21.576Z,100.00
2022-12-04T16:55:53.368Z,100.00
2022-12-04T16:58:20.840Z,100.00
2022-12-04T17:00:56.297Z,100.00
2022-12-04T17:03:28.333Z,100.00
2022-12-04T17:05:55.823Z,100.00
2022-12-04T17:08:23.202Z,100.00
2022-12-04T17:10:51.592Z,100.00
2022-12-04T17:13:21.399Z,100.00
2022-12-04T17:15:48.217Z,100.00
2022-12-04T17:18:20.545Z,100.00
2022-12-04T17:20:47.832Z,100.00
2022-12-04T17:23:14.430Z,100.00
2022-12-04T17:25:41.011Z,100.00
2022-12-04T17:28:09.907Z,100.00
2022-12-04T17:30:36.759Z,100.00
2022-12-04T17:33:04.942Z,100.00
2022-12-04T17:35:31.916Z,100.00
2022-12-04T17:38:05.672Z,100.00
2022-12-04T17:40:37.021Z,100.00
2022-12-04T17:43:03.947Z,100.00
2022-12-04T17:45:30.926Z,100.00
2022-12-04T17:48:00.038Z,100.00
2022-12-04T17:50:28.006Z,100.00
2022-12-04T17:52:54.807Z,100.00
2022-12-04T17:55:21.880Z,100.00
2022-12-04T17:57:48.578Z,100.00
2022-12-04T18:00:15.940Z,100.00
2022-12-04T18:02:42.719Z,100.00
2022-12-04T18:05:10.064Z,100.00
2022-12-04T18:07:36.825Z,100.00
2022-12-04T18:10:06.256Z,100.00
2022-12-04T18:12:33.884Z,100.00
2022-12-04T18:15:00.516Z,100.00
2022-12-04T18:17:27.241Z,100.00
2022-12-04T18:19:54.132Z,100.00
2022-12-04T18:22:22.547Z,100.00
2022-12-04T18:24:49.333Z,100.00
2022-12-04T18:27:15.981Z,100.00
2022-12-04T18:29:42.650Z,100.00
2022-12-04T18:32:09.371Z,100.00
2022-12-04T18:34:36.134Z,100.00
2022-12-04T18:37:02.819Z,100.00
2022-12-04T18:39:29.502Z,100.00
2022-12-04T18:41:59.659Z,100.00
2022-12-04T18:44:27.124Z,100.00
2022-12-04T18:46:53.942Z,100.00
2022-12-04T18:49:21.126Z,100.00
2022-12-04T18:51:50.018Z,100.00
2022-12-04T18:54:22.678Z,100.00
2022-12-04T18:56:50.285Z,100.00
2022-12-04T18:59:26.461Z,100.00
2022-12-04T19:01:54.103Z,100.00
2022-12-04T19:04:23.262Z,100.00
2022-12-04T19:06:53.079Z,100.00
2022-12-04T19:09:40.860Z,100.00
2022-12-04T19:12:07.874Z,100.00
2022-12-04T19:14:34.482Z,100.00
2022-12-04T19:17:01.207Z,100.00
2022-12-04T19:19:31.700Z,100.00
2022-12-04T19:21:59.239Z,100.00
2022-12-04T19:24:25.801Z,100.00
2022-12-04T19:26:54.084Z,100.00
2022-12-04T19:29:20.670Z,100.00
2022-12-04T19:31:47.376Z,100.00
2022-12-04T19:34:14.352Z,100.00
2022-12-04T19:36:41.844Z,100.00
2022-12-04T19:39:09.883Z,100.00
2022-12-04T19:41:38.773Z,100.00
2022-12-04T19:44:26.372Z,100.00
2022-12-04T19:46:54.172Z,100.00
2022-12-04T19:49:20.808Z,100.00
2022-12-04T19:54:19.070Z,100.00
2022-12-04T19:56:52.207Z,100.00
2022-12-04T19:59:20.400Z,100.00
2022-12-04T20:01:47.143Z,100.00
2022-12-04T20:04:13.936Z,100.00
2022-12-04T20:06:43.983Z,100.00
2022-12-04T20:09:13.616Z,100.00
2022-12-04T20:11:41.166Z,100.00
2022-12-04T20:14:08.465Z,100.00
2022-12-04T20:16:35.778Z,100.00
2022-12-04T20:19:05.553Z,100.00
2022-12-04T20:21:32.704Z,100.00
2022-12-04T20:24:04.866Z,100.00
2022-12-04T20:26:38.634Z,100.00
2022-12-04T20:29:07.141Z,100.00
2022-12-04T20:31:36.215Z,100.00
2022-12-04T20:34:08.186Z,100.00
2022-12-04T20:36:44.774Z,100.00
2022-12-04T20:39:12.743Z,100.00
2022-12-04T20:41:43.346Z,100.00
2022-12-04T20:44:13.987Z,100.00
2022-12-04T20:46:41.376Z,100.00
2022-12-04T20:49:15.812Z,100.00
2022-12-04T20:51:48.018Z,100.00
2022-12-04T20:54:18.401Z,100.00
2022-12-04T20:56:46.124Z,100.00
2022-12-04T20:59:15.563Z,100.00
2022-12-04T21:01:43.677Z,100.00
2022-12-04T21:04:12.819Z,100.00
2022-12-04T21:06:41.001Z,100.00
2022-12-04T21:09:29.999Z,100.00
2022-12-04T21:11:57.180Z,100.00
2022-12-04T21:14:45.352Z,100.00
2022-12-04T21:17:18.403Z,100.00
2022-12-04T21:19:50.733Z,100.00
2022-12-04T21:22:19.624Z,100.00
2022-12-04T21:24:46.753Z,100.00
2022-12-04T21:27:20.424Z,100.00
2022-12-04T21:29:47.612Z,100.00
2022-12-04T21:32:14.273Z,100.00
2022-12-04T21:34:40.849Z,100.00
2022-12-04T21:37:07.468Z,100.00
2022-12-04T21:39:35.779Z,100.00
2022-12-04T21:42:21.175Z,100.00
2022-12-04T21:44:49.602Z,100.00
2022-12-04T21:47:16.335Z,100.00
2022-12-04T21:49:43.034Z,100.00
2022-12-04T21:52:09.625Z,100.00
2022-12-04T21:54:36.557Z,100.00
2022-12-04T21:57:03.251Z,100.00
2022-12-04T21:59:29.963Z,100.00
2022-12-04T22:01:56.680Z,100.00
2022-12-04T22:04:24.707Z,100.00
2022-12-04T22:06:52.414Z,100.00
2022-12-04T22:09:19.505Z,100.00
2022-12-04T22:11:46.894Z,100.00
2022-12-04T22:14:13.667Z,100.00
2022-12-04T22:16:43.353Z,100.00
2022-12-04T22:19:11.549Z,100.00
2022-12-04T22:21:38.936Z,100.00
2022-12-04T22:24:06.034Z,100.00
2022-12-04T22:26:35.780Z,100.00
2022-12-04T22:29:11.265Z,100.00
2022-12-04T22:31:51.335Z,100.00
2022-12-04T22:34:18.100Z,100.00
2022-12-04T22:36:44.747Z,100.00
2022-12-04T22:39:11.576Z,100.00
2022-12-04T22:41:40.202Z,100.00
2022-12-04T22:44:07.090Z,100.00
2022-12-04T22:46:36.987Z,100.00
2022-12-04T22:49:03.740Z,100.00
2022-12-04T22:51:30.742Z,100.00
2022-12-04T22:53:58.452Z,100.00
2022-12-04T22:56:29.779Z,100.00
2022-12-04T22:58:58.089Z,100.00
2022-12-04T23:01:33.229Z,100.00
2022-12-04T23:04:01.151Z,100.00
2022-12-04T23:06:30.966Z,100.00
2022-12-04T23:09:06.463Z,100.00
2022-12-04T23:11:33.499Z,100.00
2022-12-04T23:14:03.080Z,100.00
2022-12-04T23:16:31.736Z,100.00
2022-12-04T23:18:58.422Z,100.00
2022-12-04T23:21:25.901Z,100.00
2022-12-04T23:23:54.132Z,100.00
2022-12-04T23:26:23.884Z,100.00
2022-12-04T23:28:51.113Z,100.00
2022-12-04T23:31:18.586Z,100.00
2022-12-04T23:33:45.382Z,100.00
2022-12-04T23:36:14.641Z,100.00
2022-12-04T23:38:42.862Z,100.00
2022-12-04T23:41:18.700Z,100.00
2022-12-04T23:43:46.338Z,100.00
2022-12-04T23:46:15.451Z,100.00
2022-12-04T23:48:43.958Z,100.00
2022-12-04T23:51:12.820Z,100.00
2022-12-04T23:53:39.565Z,100.00
2022-12-04T23:56:16.163Z,100.00
2022-12-04T23:58:44.580Z,100.00
